Time;durP1;ratioP1;P1;durP2;ratioP2;P2;SDS_P1;SDS_P2;PMS_P1;PMS_P2;Temp;Humidity;BMP_temperature;BMP_pressure;BME280_temperature;BME280_humidity;BME280_pressure;Samples;Min_cycle;Max_cycle;Signal;HPM_P1;HPM_P2
2023/01/15 00:01:50;;;;;;;2.83;0.80;;;6.10;99.90;;;;;;4998030;28;20226;-82
2023/01/15 00:04:17;;;;;;;4.87;1.13;;;6.00;99.90;;;;;;4995344;28;20237;-82
2023/01/15 00:06:44;;;;;;;2.17;0.80;;;6.00;99.90;;;;;;4996622;28;20222;-82
2023/01/15 00:09:15;;;;;;;2.93;0.73;;;6.00;99.90;;;;;;4996067;28;22049;-82
2023/01/15 00:11:42;;;;;;;2.20;0.90;;;6.00;99.90;;;;;;4979455;28;20307;-82
2023/01/15 00:14:09;;;;;;;5.00;1.07;;;5.90;99.90;;;;;;4994142;28;20228;-82
2023/01/15 00:16:36;;;;;;;4.37;0.90;;;5.90;99.90;;;;;;5000828;28;20344;-82
2023/01/15 00:19:07;;;;;;;2.30;0.70;;;5.90;99.90;;;;;;4983248;28;20431;-81
2023/01/15 00:21:34;;;;;;;3.37;0.80;;;5.90;99.90;;;;;;4996882;28;20590;-82
2023/01/15 00:29:38;;;;;;;3.97;1.00;;;5.80;99.90;;;;;;4965801;28;20281;-82
2023/01/15 00:32:07;;;;;;;2.80;0.80;;;5.80;99.90;;;;;;5002293;28;20322;-82
2023/01/15 00:34:35;;;;;;;2.43;0.70;;;5.80;99.90;;;;;;5003189;28;20228;-82
2023/01/15 00:37:02;;;;;;;4.50;0.90;;;5.70;99.90;;;;;;5003027;28;20236;-82
2023/01/15 00:39:33;;;;;;;3.57;1.00;;;5.80;99.90;;;;;;5002413;28;20236;-82
2023/01/15 00:42:00;;;;;;;4.60;1.00;;;5.70;99.90;;;;;;4989555;28;20220;-82
2023/01/15 00:44:27;;;;;;;5.10;1.00;;;5.70;99.90;;;;;;4988743;28;20229;-82
2023/01/15 00:46:54;;;;;;;4.60;1.10;;;5.70;99.90;;;;;;4987307;28;20240;-82
2023/01/15 00:49:21;;;;;;;6.20;1.00;;;5.70;99.90;;;;;;4984276;28;21193;-83
2023/01/15 00:51:50;;;;;;;5.40;1.13;;;5.70;99.90;;;;;;4988859;28;20361;-82
2023/01/15 00:54:17;;;;;;;3.57;0.80;;;5.70;99.90;;;;;;4981982;28;20230;-83
2023/01/15 00:56:44;;;;;;;3.70;1.10;;;5.70;99.90;;;;;;4983601;28;20899;-83
2023/01/15 00:59:11;;;;;;;3.20;0.90;;;5.70;99.90;;;;;;4997849;28;20240;-83
2023/01/15 01:01:37;;;;;;;2.13;0.70;;;5.70;99.90;;;;;;4985860;28;20224;-82
2023/01/15 01:04:05;;;;;;;5.97;0.80;;;5.60;99.90;;;;;;4986169;28;20283;-83
2023/01/15 01:06:32;;;;;;;3.33;0.80;;;5.70;99.90;;;;;;4999981;28;20232;-82
2023/01/15 01:09:00;;;;;;;3.73;0.90;;;5.70;99.90;;;;;;5000164;28;20225;-83
2023/01/15 01:11:31;;;;;;;4.33;0.93;;;5.60;99.90;;;;;;4981407;28;20240;-82
2023/01/15 01:13:58;;;;;;;1.90;0.90;;;5.60;99.90;;;;;;4989714;28;20808;-82
2023/01/15 01:16:29;;;;;;;1.90;0.80;;;5.60;99.90;;;;;;4987111;28;20236;-82
2023/01/15 01:18:57;;;;;;;4.40;1.10;;;5.60;99.90;;;;;;4984731;28;20315;-82
2023/01/15 01:21:24;;;;;;;2.00;0.80;;;5.60;99.90;;;;;;5000454;28;21721;-82
2023/01/15 01:23:51;;;;;;;5.63;0.83;;;5.60;99.90;;;;;;4998510;28;20231;-82
2023/01/15 01:26:20;;;;;;;2.80;1.00;;;5.60;99.90;;;;;;4980135;28;20224;-82
2023/01/15 01:28:51;;;;;;;2.43;0.70;;;5.60;99.90;;;;;;4998851;28;20232;-82
2023/01/15 01:31:19;;;;;;;5.20;0.90;;;5.60;99.90;;;;;;4984601;28;20232;-82
2023/01/15 01:33:48;;;;;;;3.37;0.70;;;5.60;99.90;;;;;;4982035;28;20215;-81
2023/01/15 01:36:15;;;;;;;1.90;0.70;;;5.60;99.90;;;;;;4997765;28;20880;-81
2023/01/15 01:38:41;;;;;;;3.43;1.10;;;5.60;99.90;;;;;;4997381;28;20235;-81
2023/01/15 01:41:08;;;;;;;1.97;0.80;;;5.60;99.90;;;;;;4993357;28;20251;-81
2023/01/15 01:43:53;;;;;;;4.40;1.03;;;5.60;99.90;;;;;;4983937;28;20356;-80
2023/01/15 01:46:20;;;;;;;3.00;1.10;;;5.60;99.90;;;;;;4999194;28;20268;-81
2023/01/15 01:48:48;;;;;;;3.33;1.27;;;5.60;99.90;;;;;;5001531;28;20225;-81
2023/01/15 01:51:15;;;;;;;4.37;1.03;;;5.60;99.90;;;;;;4997860;28;20228;-82
2023/01/15 01:53:42;;;;;;;3.83;1.37;;;5.60;99.90;;;;;;5002458;28;20244;-82
2023/01/15 01:56:11;;;;;;;4.47;1.23;;;5.60;99.90;;;;;;4997356;28;20232;-82
2023/01/15 01:58:38;;;;;;;5.27;1.40;;;5.60;99.90;;;;;;4996111;28;20229;-81
2023/01/15 02:01:06;;;;;;;4.13;1.50;;;5.60;99.90;;;;;;4982326;28;20708;-82
2023/01/15 02:03:38;;;;;;;6.47;1.50;;;5.60;99.90;;;;;;4986870;28;20343;-83
2023/01/15 02:06:09;;;;;;;5.73;1.33;;;5.60;99.90;;;;;;4995587;28;20228;-83
2023/01/15 02:08:39;;;;;;;2.53;1.13;;;5.60;99.90;;;;;;4977563;28;20228;-83
2023/01/15 02:11:07;;;;;;;4.70;1.37;;;5.60;99.90;;;;;;4988958;28;20271;-82
2023/01/15 02:13:37;;;;;;;4.10;0.90;;;5.60;99.90;;;;;;4981664;28;20358;-82
2023/01/15 02:16:12;;;;;;;4.57;1.17;;;5.60;99.90;;;;;;4984629;28;20318;-83
2023/01/15 02:18:45;;;;;;;5.00;1.30;;;5.70;99.90;;;;;;4981191;28;20308;-82
2023/01/15 02:21:18;;;;;;;3.87;1.40;;;5.60;99.90;;;;;;4992094;28;20304;-82
2023/01/15 02:24:01;;;;;;;6.00;1.10;;;5.70;99.90;;;;;;4985725;28;20285;-82
2023/01/15 02:26:54;;;;;;;3.73;1.10;;;5.70;99.90;;;;;;4980691;28;20331;-82
2023/01/15 02:29:29;;;;;;;2.30;1.07;;;5.70;99.90;;;;;;4997709;28;20274;-83
2023/01/15 02:31:58;;;;;;;5.23;1.60;;;5.70;99.90;;;;;;4984798;28;20219;-83
2023/01/15 02:34:29;;;;;;;7.67;1.40;;;5.60;99.90;;;;;;4977434;28;20264;-82
2023/01/15 02:37:04;;;;;;;5.40;1.23;;;5.60;99.90;;;;;;4997502;28;20239;-83
2023/01/15 02:39:34;;;;;;;4.63;1.97;;;5.70;99.90;;;;;;4982417;28;20224;-83
2023/01/15 02:42:05;;;;;;;5.27;1.50;;;5.60;99.90;;;;;;4993170;28;20235;-83
2023/01/15 02:44:40;;;;;;;7.23;1.30;;;5.70;99.90;;;;;;4985743;28;20323;-83
2023/01/15 02:47:08;;;;;;;6.67;1.67;;;5.60;99.90;;;;;;4989584;28;20237;-84
2023/01/15 02:49:37;;;;;;;7.70;1.57;;;5.60;99.90;;;;;;4999836;28;20243;-83
2023/01/15 02:52:09;;;;;;;6.87;1.50;;;5.70;99.90;;;;;;4981943;28;20222;-83
2023/01/15 02:54:43;;;;;;;3.77;0.90;;;5.70;99.90;;;;;;4981800;28;20337;-84
2023/01/15 02:57:13;;;;;;;3.00;1.30;;;5.70;99.90;;;;;;4998097;28;20229;-83
2023/01/15 02:59:47;;;;;;;4.10;1.10;;;5.70;99.90;;;;;;4982065;28;20305;-83
2023/01/15 03:02:20;;;;;;;5.53;1.30;;;5.70;99.90;;;;;;4993692;28;20231;-83
2023/01/15 03:04:51;;;;;;;9.97;1.47;;;5.70;99.90;;;;;;4984893;28;20222;-83
2023/01/15 03:07:22;;;;;;;3.33;1.20;;;5.70;99.90;;;;;;4985886;28;21005;-83
2023/01/15 03:09:50;;;;;;;6.80;1.50;;;5.70;99.90;;;;;;4993102;28;20232;-82
2023/01/15 03:12:25;;;;;;;6.67;1.70;;;5.70;99.90;;;;;;4974160;28;20228;-83
2023/01/15 03:15:04;;;;;;;7.67;1.33;;;5.70;99.90;;;;;;4982555;28;20279;-83
2023/01/15 03:17:36;;;;;;;6.93;1.77;;;5.70;99.90;;;;;;5001885;28;20236;-82
2023/01/15 03:20:12;;;;;;;6.53;1.40;;;5.70;99.90;;;;;;4986157;28;20264;-83
2023/01/15 03:22:43;;;;;;;9.80;2.03;;;5.70;99.90;;;;;;4986927;28;20231;-82
2023/01/15 03:25:14;;;;;;;4.93;1.80;;;5.70;99.90;;;;;;4995955;28;20224;-82
2023/01/15 03:27:49;;;;;;;5.53;1.40;;;5.70;99.90;;;;;;4979838;28;20318;-81
2023/01/15 03:30:19;;;;;;;6.17;1.53;;;5.70;99.90;;;;;;4995317;28;20224;-81
2023/01/15 03:32:47;;;;;;;4.87;1.43;;;5.70;99.90;;;;;;4993762;28;20225;-81
2023/01/15 03:35:45;;;;;;;5.70;1.37;;;5.70;99.90;;;;;;4994622;28;20228;-82
2023/01/15 03:38:20;;;;;;;7.57;1.20;;;5.70;99.90;;;;;;4980212;28;20224;-82
2023/01/15 03:40:55;;;;;;;7.13;1.37;;;5.70;99.90;;;;;;4990321;28;20239;-82
2023/01/15 03:43:42;;;;;;;5.50;1.37;;;5.70;99.90;;;;;;4995106;28;20901;-82
2023/01/15 03:46:27;;;;;;;5.73;1.37;;;5.70;99.90;;;;;;4980906;28;20230;-82
2023/01/15 03:49:00;;;;;;;5.47;1.40;;;5.70;99.90;;;;;;5000263;28;20765;-82
2023/01/15 03:51:38;;;;;;;5.00;1.30;;;5.70;99.90;;;;;;5000854;28;20238;-82
2023/01/15 03:54:11;;;;;;;7.23;1.50;;;5.60;99.90;;;;;;4996335;28;20314;-83
2023/01/15 03:56:44;;;;;;;6.87;1.97;;;5.60;99.90;;;;;;4982152;28;21832;-83
2023/01/15 03:59:22;;;;;;;5.67;1.63;;;5.60;99.90;;;;;;4977280;28;20299;-82
2023/01/15 04:01:55;;;;;;;6.03;1.17;;;5.60;99.90;;;;;;4982442;28;20224;-82
2023/01/15 04:04:25;;;;;;;3.70;1.30;;;5.60;99.90;;;;;;4983631;28;20223;-82
2023/01/15 04:06:55;;;;;;;5.27;1.50;;;5.60;99.90;;;;;;4987639;28;20278;-82
2023/01/15 04:09:23;;;;;;;4.70;1.47;;;5.70;99.90;;;;;;4983672;28;20224;-82
2023/01/15 04:11:53;;;;;;;15.17;2.90;;;5.60;99.90;;;;;;4976937;28;20235;-82
2023/01/15 04:14:21;;;;;;;9.10;1.37;;;5.60;99.90;;;;;;4989615;28;20306;-81
2023/01/15 04:16:52;;;;;;;8.67;1.47;;;5.50;99.90;;;;;;4998896;28;20226;-81
2023/01/15 04:19:21;;;;;;;8.20;1.50;;;5.50;99.90;;;;;;4982933;28;20881;-82
2023/01/15 04:21:55;;;;;;;5.37;2.10;;;5.50;99.90;;;;;;4995789;28;20641;-82
2023/01/15 04:24:22;;;;;;;8.67;1.80;;;5.50;99.90;;;;;;4988068;28;20255;-83
2023/01/15 04:26:49;;;;;;;8.77;1.60;;;5.50;99.90;;;;;;5001834;28;20279;-81
2023/01/15 04:29:16;;;;;;;8.37;1.80;;;5.50;99.90;;;;;;5002436;28;20276;-81
2023/01/15 04:31:44;;;;;;;6.53;1.90;;;5.50;99.90;;;;;;4990932;28;20789;-81
2023/01/15 04:34:11;;;;;;;6.57;1.60;;;5.50;99.90;;;;;;4996280;28;20218;-81
2023/01/15 04:36:38;;;;;;;8.77;1.70;;;5.50;99.90;;;;;;4997801;28;20235;-81
2023/01/15 04:39:05;;;;;;;8.07;1.60;;;5.50;99.90;;;;;;5000595;28;20224;-82
2023/01/15 04:44:16;;;;;;;7.60;1.70;;;5.50;99.90;;;;;;5005461;28;20231;-81
2023/01/15 04:46:46;;;;;;;5.67;1.57;;;5.50;99.90;;;;;;5005410;28;20235;-81
2023/01/15 04:49:15;;;;;;;6.83;2.00;;;5.60;99.90;;;;;;5002662;28;20231;-81
2023/01/15 04:51:42;;;;;;;6.93;1.73;;;5.60;99.90;;;;;;4989888;28;20320;-81
2023/01/15 04:54:10;;;;;;;7.23;1.50;;;5.60;99.90;;;;;;5002572;28;20510;-81
2023/01/15 04:56:39;;;;;;;5.47;1.30;;;5.60;99.90;;;;;;4987553;28;20228;-81
2023/01/15 04:59:06;;;;;;;8.30;1.73;;;5.60;99.90;;;;;;4990129;28;20797;-81
2023/01/15 05:01:33;;;;;;;7.83;1.67;;;5.60;99.90;;;;;;4990015;28;20312;-80
2023/01/15 05:04:01;;;;;;;9.13;1.57;;;5.50;99.90;;;;;;4985228;28;20301;-82
2023/01/15 05:06:30;;;;;;;8.00;1.97;;;5.50;99.90;;;;;;4986842;28;20323;-81
2023/01/15 05:08:57;;;;;;;6.77;1.50;;;5.50;99.90;;;;;;4987433;28;20331;-81
2023/01/15 05:11:24;;;;;;;9.37;2.53;;;5.50;99.90;;;;;;4987660;28;20233;-83
2023/01/15 05:13:51;;;;;;;8.47;2.00;;;5.50;99.90;;;;;;5000356;28;20270;-82
2023/01/15 05:16:20;;;;;;;5.63;1.40;;;5.40;99.90;;;;;;4996899;28;20253;-82
2023/01/15 05:18:48;;;;;;;5.97;1.60;;;5.40;99.90;;;;;;5003886;28;20802;-84
2023/01/15 05:21:20;;;;;;;6.00;1.60;;;5.40;99.90;;;;;;4986533;28;20311;-83
2023/01/15 05:23:47;;;;;;;6.80;1.80;;;5.40;99.90;;;;;;5001544;28;20233;-83
2023/01/15 05:26:14;;;;;;;6.37;1.93;;;5.30;99.90;;;;;;5006080;28;20633;-84
2023/01/15 05:28:41;;;;;;;7.27;1.97;;;5.30;99.90;;;;;;4991485;28;20235;-83
2023/01/15 05:31:09;;;;;;;8.80;1.83;;;5.20;99.90;;;;;;4986032;28;20791;-82
2023/01/15 05:33:36;;;;;;;9.07;1.80;;;5.20;99.90;;;;;;5006960;28;20317;-82
2023/01/15 05:36:04;;;;;;;13.57;1.87;;;5.20;99.90;;;;;;4986639;28;20307;-82
2023/01/15 05:38:32;;;;;;;8.93;1.70;;;5.20;99.90;;;;;;4998638;28;20302;-82
2023/01/15 05:40:59;;;;;;;8.20;1.73;;;5.10;99.90;;;;;;4983638;28;20772;-83
2023/01/15 05:43:25;;;;;;;8.63;1.90;;;5.10;99.90;;;;;;4998650;28;20248;-83
2023/01/15 05:45:52;;;;;;;11.77;2.27;;;5.10;99.90;;;;;;5005284;28;20931;-82
2023/01/15 05:48:19;;;;;;;8.70;1.73;;;5.10;99.90;;;;;;4990176;28;20220;-83
2023/01/15 05:50:45;;;;;;;6.50;2.10;;;5.10;99.90;;;;;;4988697;28;20722;-82
2023/01/15 05:53:12;;;;;;;10.93;2.30;;;5.00;99.90;;;;;;4983019;28;20730;-82
2023/01/15 05:55:41;;;;;;;8.23;1.80;;;5.10;99.90;;;;;;4984934;28;20223;-83
2023/01/15 05:58:08;;;;;;;7.97;1.87;;;5.00;99.90;;;;;;4996146;28;20300;-83
2023/01/15 06:00:35;;;;;;;11.07;2.90;;;5.10;99.90;;;;;;4998008;28;20255;-82
2023/01/15 06:03:01;;;;;;;10.40;2.00;;;5.00;99.90;;;;;;4978948;28;20224;-83
2023/01/15 06:05:28;;;;;;;4.83;1.60;;;5.00;99.90;;;;;;4981445;28;20238;-82
2023/01/15 06:07:55;;;;;;;11.07;1.90;;;5.00;99.90;;;;;;4986176;28;20247;-81
2023/01/15 06:10:22;;;;;;;8.93;2.00;;;5.00;99.90;;;;;;5001188;28;20249;-82
2023/01/15 06:12:50;;;;;;;7.83;1.53;;;5.00;99.90;;;;;;4988995;28;20309;-82
2023/01/15 06:15:16;;;;;;;8.43;2.00;;;5.00;99.90;;;;;;4997207;28;20224;-82
2023/01/15 06:17:43;;;;;;;9.40;2.13;;;5.00;99.90;;;;;;5005568;28;20227;-82
2023/01/15 06:20:11;;;;;;;8.33;2.10;;;5.00;99.90;;;;;;4993432;28;20253;-82
2023/01/15 06:22:38;;;;;;;7.50;1.70;;;5.00;99.90;;;;;;4989294;28;20918;-82
2023/01/15 06:25:06;;;;;;;8.37;2.37;;;5.00;99.90;;;;;;5005932;28;20312;-79
2023/01/15 06:27:32;;;;;;;8.40;1.80;;;5.00;99.90;;;;;;5001628;28;20235;-79
2023/01/15 06:30:00;;;;;;;6.20;2.10;;;5.00;99.90;;;;;;5002822;28;20228;-79
2023/01/15 06:32:27;;;;;;;9.93;1.90;;;5.00;99.90;;;;;;5005244;28;20226;-79
2023/01/15 06:34:54;;;;;;;9.60;2.30;;;5.00;99.90;;;;;;4993603;28;20744;-79
2023/01/15 06:37:21;;;;;;;5.27;1.70;;;5.00;99.90;;;;;;5004688;28;20226;-79
2023/01/15 06:39:48;;;;;;;8.27;2.27;;;5.10;99.90;;;;;;4980867;28;20223;-79
2023/01/15 06:47:45;;;;;;;8.77;2.10;;;5.00;99.90;;;;;;4984607;28;20241;-79
2023/01/15 06:50:12;;;;;;;6.30;2.03;;;5.00;99.90;;;;;;4998940;28;20235;-79
2023/01/15 06:52:39;;;;;;;9.20;1.60;;;5.00;99.90;;;;;;4993475;28;20227;-79
2023/01/15 06:55:07;;;;;;;7.47;2.20;;;5.00;99.90;;;;;;4996856;28;20219;-79
2023/01/15 06:57:34;;;;;;;5.60;1.90;;;5.00;99.90;;;;;;4983974;28;20227;-79
2023/01/15 07:00:02;;;;;;;9.50;2.17;;;5.00;99.90;;;;;;4996200;28;20233;-79
2023/01/15 07:02:29;;;;;;;11.97;2.33;;;5.00;99.90;;;;;;4995823;28;20231;-79
2023/01/15 07:04:56;;;;;;;10.03;1.73;;;5.00;99.90;;;;;;4992266;28;20625;-79
2023/01/15 07:07:22;;;;;;;9.83;2.07;;;5.10;99.90;;;;;;4998825;28;20592;-79
2023/01/15 07:09:49;;;;;;;6.90;1.60;;;5.10;99.90;;;;;;5007303;28;20232;-79
2023/01/15 07:12:20;;;;;;;7.13;1.70;;;5.10;99.90;;;;;;4993390;28;20721;-79
2023/01/15 07:14:47;;;;;;;7.90;1.67;;;5.10;99.90;;;;;;4980028;28;20273;-79
2023/01/15 07:17:15;;;;;;;10.40;1.50;;;5.00;99.90;;;;;;4983581;28;20655;-79
2023/01/15 07:19:42;;;;;;;6.10;1.57;;;5.10;99.90;;;;;;4999724;28;20230;-78
2023/01/15 07:22:09;;;;;;;5.17;1.20;;;5.10;99.90;;;;;;4986002;28;20819;-78
2023/01/15 07:24:36;;;;;;;7.20;1.90;;;5.10;99.90;;;;;;4998196;28;20220;-78
2023/01/15 07:27:03;;;;;;;5.20;1.57;;;5.00;99.90;;;;;;4982168;28;20803;-78
2023/01/15 07:29:30;;;;;;;7.80;1.70;;;5.10;99.90;;;;;;4983085;28;20228;-78
2023/01/15 07:31:57;;;;;;;6.93;1.73;;;5.10;99.90;;;;;;5005180;28;20259;-78
2023/01/15 07:34:25;;;;;;;8.63;1.90;;;5.10;99.90;;;;;;4980899;28;20224;-79
2023/01/15 07:36:51;;;;;;;7.50;2.70;;;5.00;99.90;;;;;;4991571;28;20239;-79
2023/01/15 07:39:18;;;;;;;5.57;2.63;;;5.00;99.90;;;;;;4996305;28;20991;-79
2023/01/15 07:50:08;;;;;;;5.67;2.00;;;5.00;99.90;;;;;;4975922;28;20297;-79
2023/01/15 07:52:34;;;;;;;10.47;1.93;;;5.00;99.90;;;;;;5002624;28;20226;-78
2023/01/15 07:55:02;;;;;;;8.47;2.23;;;5.00;99.90;;;;;;4998451;28;20224;-79
2023/01/15 07:57:29;;;;;;;9.57;2.00;;;5.00;99.90;;;;;;4983065;28;20238;-78
2023/01/15 07:59:56;;;;;;;5.57;1.97;;;5.00;99.90;;;;;;4982244;28;20249;-79
2023/01/15 08:02:23;;;;;;;10.07;2.37;;;5.00;99.90;;;;;;4981605;28;20216;-77
2023/01/15 08:04:50;;;;;;;11.17;3.00;;;5.00;99.90;;;;;;5002036;28;20599;-78
2023/01/15 08:07:18;;;;;;;7.90;1.63;;;5.00;99.90;;;;;;4998008;28;20227;-78
2023/01/15 08:09:45;;;;;;;6.30;1.63;;;5.00;99.90;;;;;;4999261;28;20220;-78
2023/01/15 08:15:14;;;;;;;7.67;2.33;;;5.00;99.90;;;;;;4997040;28;20222;-77
2023/01/15 08:17:42;;;;;;;7.67;1.93;;;5.00;99.90;;;;;;4998715;28;20234;-79
2023/01/15 08:20:12;;;;;;;8.50;1.90;;;5.00;99.90;;;;;;4973933;28;20219;-79
2023/01/15 08:22:40;;;;;;;5.97;1.87;;;5.00;99.90;;;;;;4996576;28;20259;-79
2023/01/15 08:25:09;;;;;;;6.07;1.90;;;5.00;99.90;;;;;;4994368;28;20699;-79
2023/01/15 08:27:36;;;;;;;7.07;2.80;;;5.10;99.90;;;;;;4985660;28;20231;-79
2023/01/15 08:30:04;;;;;;;7.93;2.20;;;5.10;99.90;;;;;;4971818;28;20246;-78
2023/01/15 08:32:30;;;;;;;9.03;2.20;;;5.20;99.90;;;;;;4994970;28;20233;-80
2023/01/15 08:34:57;;;;;;;9.77;2.57;;;5.20;99.90;;;;;;4980387;28;20582;-79
2023/01/15 08:37:24;;;;;;;6.33;2.20;;;5.20;99.90;;;;;;4975860;28;20238;-79
2023/01/15 08:39:52;;;;;;;6.50;2.23;;;5.20;99.90;;;;;;4997340;28;20235;-78
2023/01/15 08:42:19;;;;;;;6.47;2.17;;;5.20;99.90;;;;;;4993749;28;20301;-81
2023/01/15 08:44:46;;;;;;;7.53;1.73;;;5.20;99.90;;;;;;4984574;28;20226;-81
2023/01/15 08:47:12;;;;;;;6.40;1.70;;;5.20;99.90;;;;;;4979940;28;20228;-81
2023/01/15 08:49:39;;;;;;;8.63;2.40;;;5.20;99.90;;;;;;4998893;28;20311;-83
2023/01/15 08:52:06;;;;;;;5.13;2.07;;;5.20;99.90;;;;;;4990305;28;20234;-83
2023/01/15 08:54:32;;;;;;;7.43;2.00;;;5.20;99.90;;;;;;5004714;28;20224;-81
2023/01/15 08:57:01;;;;;;;7.37;2.30;;;5.20;99.90;;;;;;5004553;28;20266;-82
2023/01/15 08:59:27;;;;;;;9.93;2.23;;;5.10;99.90;;;;;;4983646;28;20235;-80
2023/01/15 09:01:54;;;;;;;12.20;2.10;;;5.10;99.90;;;;;;5004815;28;20247;-81
2023/01/15 09:04:21;;;;;;;7.87;2.47;;;5.10;99.90;;;;;;5003683;28;20228;-80
2023/01/15 09:06:49;;;;;;;6.77;1.90;;;5.10;99.90;;;;;;5005539;28;20251;-81
2023/01/15 09:09:17;;;;;;;5.87;1.80;;;5.00;99.90;;;;;;5002215;28;20602;-81
2023/01/15 09:11:44;;;;;;;8.83;2.07;;;5.00;99.90;;;;;;5015264;28;20231;-80
2023/01/15 09:14:14;;;;;;;6.40;1.93;;;5.00;99.90;;;;;;4998835;28;20231;-80
2023/01/15 09:16:44;;;;;;;9.50;2.30;;;5.00;99.90;;;;;;5008366;28;20257;-80
2023/01/15 09:19:11;;;;;;;10.80;3.10;;;5.10;99.90;;;;;;5008942;28;20231;-80
2023/01/15 09:21:38;;;;;;;11.10;3.10;;;5.00;99.90;;;;;;4992947;28;20230;-80
2023/01/15 09:24:05;;;;;;;9.10;2.83;;;5.00;99.90;;;;;;5010495;28;20227;-80
2023/01/15 09:26:34;;;;;;;11.27;2.60;;;5.00;99.90;;;;;;4993274;28;20235;-80
2023/01/15 09:29:02;;;;;;;5.73;1.97;;;5.00;99.90;;;;;;5002640;28;20636;-81
2023/01/15 09:31:33;;;;;;;5.67;1.70;;;5.00;99.90;;;;;;5016818;28;20233;-81
2023/01/15 09:33:59;;;;;;;8.37;1.80;;;5.00;99.90;;;;;;5010069;28;20225;-81
2023/01/15 09:36:28;;;;;;;8.40;1.43;;;5.00;99.90;;;;;;5009310;28;20952;-81
2023/01/15 09:38:55;;;;;;;8.03;1.53;;;5.00;99.90;;;;;;5008614;28;20721;-81
2023/01/15 09:44:21;;;;;;;5.33;1.33;;;5.10;99.90;;;;;;5001589;28;20220;-81
2023/01/15 09:47:01;;;;;;;7.73;1.47;;;5.20;99.90;;;;;;5009285;28;20234;-81
2023/01/15 09:49:40;;;;;;;4.97;1.37;;;5.30;99.90;;;;;;4994192;28;20315;-81
2023/01/15 09:52:15;;;;;;;7.97;1.40;;;5.50;99.90;;;;;;5008279;28;20261;-80
2023/01/15 09:54:51;;;;;;;3.87;1.17;;;5.80;99.90;;;;;;4982805;28;20759;-83
2023/01/15 09:57:20;;;;;;;7.13;1.17;;;6.10;99.90;;;;;;5007504;28;20636;-81
2023/01/15 09:59:49;;;;;;;5.33;1.20;;;6.40;99.90;;;;;;4992982;28;20225;-81
2023/01/15 10:02:23;;;;;;;4.93;1.70;;;6.70;99.90;;;;;;5005237;28;20269;-81
2023/01/15 10:04:55;;;;;;;5.83;1.43;;;7.10;99.90;;;;;;5007451;28;20260;-81
2023/01/15 10:07:28;;;;;;;5.67;1.50;;;7.40;99.90;;;;;;5001664;28;20251;-81
2023/01/15 10:10:01;;;;;;;6.07;1.10;;;7.60;99.90;;;;;;4983197;28;20249;-81
2023/01/15 10:12:37;;;;;;;3.90;1.30;;;7.80;99.90;;;;;;5008118;28;20318;-81
2023/01/15 10:15:22;;;;;;;3.90;1.27;;;8.00;99.90;;;;;;4991250;28;20778;-81
2023/01/15 10:17:53;;;;;;;7.30;1.43;;;8.20;99.90;;;;;;5007702;28;20242;-81
2023/01/15 10:20:39;;;;;;;7.30;1.40;;;8.40;99.90;;;;;;4991029;28;20288;-81
2023/01/15 10:23:27;;;;;;;3.80;1.50;;;8.50;99.90;;;;;;5009897;28;20629;-81
2023/01/15 10:26:02;;;;;;;5.17;1.30;;;8.60;99.90;;;;;;4983163;28;20818;-81
2023/01/15 10:28:30;;;;;;;5.03;1.20;;;8.60;99.90;;;;;;5008486;28;20225;-81
2023/01/15 10:31:03;;;;;;;8.57;1.70;;;8.50;99.90;;;;;;5001032;28;20320;-81
2023/01/15 10:33:46;;;;;;;4.63;1.07;;;8.50;99.90;;;;;;4989234;28;20282;-81
2023/01/15 10:36:20;;;;;;;3.70;1.10;;;8.50;99.90;;;;;;5004248;28;20242;-81
2023/01/15 10:38:54;;;;;;;4.37;1.30;;;8.40;99.90;;;;;;4999009;28;20300;-81
2023/01/15 10:41:33;;;;;;;6.60;1.70;;;8.30;99.90;;;;;;5007282;28;20238;-82
2023/01/15 10:44:04;;;;;;;4.90;1.40;;;8.20;99.90;;;;;;4997405;28;20230;-81
2023/01/15 10:46:38;;;;;;;4.90;1.40;;;8.10;99.90;;;;;;4993648;28;20232;-81
2023/01/15 10:49:13;;;;;;;8.90;1.90;;;7.80;99.90;;;;;;4988781;28;20236;-81
2023/01/15 10:51:45;;;;;;;4.50;1.30;;;7.80;99.90;;;;;;4987821;28;20309;-81
2023/01/15 10:54:25;;;;;;;5.50;1.40;;;7.60;99.90;;;;;;4976034;28;20233;-81
2023/01/15 10:57:01;;;;;;;7.80;1.43;;;7.50;99.90;;;;;;5007164;28;20236;-80
2023/01/15 10:59:38;;;;;;;4.43;1.40;;;7.30;99.90;;;;;;4990050;28;20293;-81
2023/01/15 11:02:19;;;;;;;5.87;1.40;;;7.30;99.90;;;;;;4990024;28;20221;-81
2023/01/15 11:04:47;;;;;;;3.43;1.10;;;7.20;99.90;;;;;;5006949;28;20602;-81
2023/01/15 11:07:14;;;;;;;6.90;1.70;;;7.30;99.90;;;;;;4994550;28;20240;-81
2023/01/15 11:09:42;;;;;;;4.70;1.87;;;7.20;99.90;;;;;;5000057;28;20239;-81
2023/01/15 11:21:00;;;;;;;8.47;1.13;;;7.20;99.90;;;;;;5011255;28;20209;-81
2023/01/15 11:23:27;;;;;;;4.13;1.20;;;7.10;99.80;;;;;;5011255;28;20225;-81
2023/01/15 11:25:56;;;;;;;3.80;1.50;;;7.20;99.90;;;;;;4989010;28;20246;-81
2023/01/15 11:28:39;;;;;;;5.20;1.20;;;7.20;99.90;;;;;;5007213;28;20311;-81
2023/01/15 11:31:07;;;;;;;4.37;1.23;;;7.20;99.90;;;;;;4988183;28;20325;-82
2023/01/15 11:33:34;;;;;;;3.27;1.30;;;7.10;99.90;;;;;;4988773;28;20236;-81
2023/01/15 11:36:04;;;;;;;6.07;1.63;;;7.10;99.90;;;;;;4989731;28;20623;-82
2023/01/15 11:38:42;;;;;;;4.10;1.50;;;7.00;99.90;;;;;;4984668;28;20318;-81
2023/01/15 11:41:21;;;;;;;6.57;1.43;;;7.00;99.90;;;;;;4996127;28;20264;-80
2023/01/15 11:52:16;;;;;;;3.50;1.10;;;6.70;99.90;;;;;;5001248;28;20313;-80
2023/01/15 11:54:46;;;;;;;3.17;1.40;;;6.50;99.90;;;;;;4998694;28;20236;-79
2023/01/15 11:57:22;;;;;;;5.10;1.50;;;6.40;99.90;;;;;;4979385;28;20221;-79
2023/01/15 11:59:49;;;;;;;4.03;1.20;;;6.30;99.90;;;;;;5001724;28;20226;-79
2023/01/15 12:02:25;;;;;;;4.53;1.20;;;6.10;99.90;;;;;;5004238;28;20228;-79
2023/01/15 12:04:55;;;;;;;3.53;1.30;;;6.00;99.90;;;;;;4999955;28;20308;-79
2023/01/15 12:07:25;;;;;;;3.50;0.93;;;5.70;99.90;;;;;;4996698;28;20237;-79
2023/01/15 12:10:05;;;;;;;1.87;0.60;;;5.50;99.90;;;;;;4983162;28;20324;-79
2023/01/15 12:12:41;;;;;;;1.33;0.60;;;5.20;99.90;;;;;;5000513;28;20226;-80
2023/01/15 12:15:38;;;;;;;1.97;0.40;;;4.90;99.90;;;;;;4994898;28;20222;-80
2023/01/15 12:18:53;;;;;;;0.70;0.30;;;4.50;99.90;;;;;;4999716;28;20295;-81
2023/01/15 12:21:38;;;;;;;1.00;0.40;;;4.20;99.90;;;;;;4968574;28;21004;-81
2023/01/15 12:24:27;;;;;;;101.63;72.27;;;4.10;99.90;;;;;;5003197;28;20256;-81
2023/01/15 12:27:07;;;;;;;22.13;18.00;;;4.00;99.90;;;;;;4987026;28;20226;-81
2023/01/15 12:29:39;;;;;;;3.03;1.83;;;3.90;99.90;;;;;;5006266;28;20833;-81
2023/01/15 12:32:14;;;;;;;2.40;1.50;;;3.90;99.90;;;;;;4988058;28;20213;-81
2023/01/15 12:34:45;;;;;;;6.43;4.57;;;3.80;99.90;;;;;;5003328;28;20496;-81
2023/01/15 12:37:19;;;;;;;7.77;6.63;;;3.80;99.90;;;;;;5001324;28;20219;-81
2023/01/15 12:39:51;;;;;;;4.73;2.40;;;3.70;99.90;;;;;;4988413;28;20253;-81
2023/01/15 12:45:10;;;;;;;5.40;1.70;;;3.70;99.90;;;;;;5007478;28;20221;-81
2023/01/15 12:47:42;;;;;;;5.70;2.20;;;3.70;99.90;;;;;;4993511;28;20228;-81
2023/01/15 12:50:32;;;;;;;5.27;4.77;;;3.80;99.90;;;;;;4979415;28;20287;-81
2023/01/15 12:53:04;;;;;;;3.53;1.70;;;3.80;99.90;;;;;;5006265;28;20336;-81
2023/01/15 12:55:36;;;;;;;8.03;3.50;;;3.80;99.90;;;;;;5004259;28;20236;-81
2023/01/15 12:58:10;;;;;;;4.73;2.23;;;3.90;99.90;;;;;;5004906;28;20629;-81
2023/01/15 13:00:41;;;;;;;6.03;2.63;;;4.00;99.90;;;;;;4977860;28;20310;-83
2023/01/15 13:03:19;;;;;;;8.10;3.47;;;4.10;99.90;;;;;;4991149;28;20216;-83
2023/01/15 13:05:48;;;;;;;7.07;2.63;;;4.10;99.90;;;;;;5006714;28;20221;-84
2023/01/15 13:08:23;;;;;;;4.50;2.27;;;4.20;99.90;;;;;;4992940;28;20290;-85
2023/01/15 13:10:51;;;;;;;17.23;12.53;;;4.30;99.90;;;;;;4976899;28;20249;-84
2023/01/15 13:13:21;;;;;;;7.47;3.80;;;4.40;99.90;;;;;;4975672;28;20233;-84
2023/01/15 13:16:12;;;;;;;7.17;2.83;;;4.50;99.90;;;;;;4993519;28;20959;-84
2023/01/15 13:18:50;;;;;;;7.03;2.20;;;4.60;99.90;;;;;;5011224;28;20283;-84
2023/01/15 13:21:20;;;;;;;6.27;1.80;;;4.70;99.90;;;;;;4974503;28;20225;-84
2023/01/15 13:24:08;;;;;;;6.23;1.90;;;4.80;99.90;;;;;;5002537;28;20218;-83
2023/01/15 13:26:53;;;;;;;4.83;1.70;;;4.90;99.90;;;;;;5002844;28;20298;-84
2023/01/15 13:29:30;;;;;;;5.10;2.00;;;5.00;99.90;;;;;;4992017;28;20886;-83
2023/01/15 13:32:01;;;;;;;4.70;1.70;;;5.00;99.90;;;;;;5005206;28;20625;-83
2023/01/15 13:34:36;;;;;;;4.80;2.00;;;5.00;99.90;;;;;;4999021;28;20263;-82
2023/01/15 13:37:11;;;;;;;4.07;1.53;;;5.00;99.90;;;;;;4989244;28;20231;-83
2023/01/15 13:39:41;;;;;;;40.10;32.50;;;5.00;99.90;;;;;;4972317;28;20232;-84
2023/01/15 13:42:31;;;;;;;56.17;46.63;;;5.10;99.90;;;;;;4988947;28;20228;-83
2023/01/15 13:45:01;;;;;;;13.10;7.80;;;5.10;99.90;;;;;;4989703;28;20304;-85
2023/01/15 13:47:30;;;;;;;10.80;9.63;;;5.10;99.90;;;;;;5005201;28;20299;-84
2023/01/15 13:50:04;;;;;;;14.77;7.30;;;5.10;99.90;;;;;;4993892;28;20216;-85
2023/01/15 13:52:32;;;;;;;9.27;3.60;;;5.10;99.90;;;;;;4995115;28;20281;-84
2023/01/15 13:55:07;;;;;;;8.73;2.40;;;5.10;99.90;;;;;;4986915;28;20291;-84
2023/01/15 13:57:37;;;;;;;4.47;2.23;;;5.10;99.90;;;;;;4992777;28;20709;-84
2023/01/15 14:00:05;;;;;;;4.07;1.50;;;5.10;99.90;;;;;;5011789;28;20707;-83
2023/01/15 14:02:39;;;;;;;7.77;2.77;;;5.10;99.90;;;;;;5010128;28;20223;-84